createdAt,value
2023-01-11T09:30:39.165Z,100373.19
2023-01-11T09:32:44.116Z,100369.63
2023-01-11T09:34:49.779Z,100364.41
2023-01-11T09:36:52.947Z,100364.41
2023-01-11T09:39:01.768Z,100364.31
2023-01-11T09:41:13.023Z,100361.69
2023-01-11T09:43:17.564Z,100358.97
2023-01-11T09:45:23.370Z,100371.09
2023-01-11T09:47:36.667Z,100372.78
2023-01-11T09:49:44.789Z,100377.81
2023-01-11T09:51:49.951Z,100372.59
2023-01-11T09:53:54.536Z,100396.00
2023-01-11T09:56:02.967Z,100395.91
2023-01-11T09:58:21.734Z,100384.47
2023-01-11T10:00:33.457Z,100394.00
2023-01-11T10:02:53.860Z,100391.38
2023-01-11T10:05:28.680Z,100380.94
2023-01-11T10:18:22.844Z,100389.50
2023-01-11T10:18:49.425Z,100385.97
2023-01-11T10:20:56.328Z,100392.88
2023-01-11T10:23:06.417Z,100396.22
2023-01-11T10:25:18.857Z,100403.13
2023-01-11T10:27:27.698Z,100410.03
2023-01-11T10:29:59.557Z,100412.63
2023-01-11T10:32:33.936Z,100434.28
2023-01-11T10:34:59.696Z,100431.59
2023-01-11T10:37:23.874Z,100434.75
2023-01-11T10:39:51.993Z,100433.69
2023-01-11T10:42:07.720Z,100417.06
2023-01-11T10:44:19.347Z,100415.28
2023-01-11T10:46:25.905Z,100410.91
2023-01-11T10:48:33.538Z,100412.56
2023-01-11T10:50:46.834Z,100402.94
2023-01-11T10:52:56.275Z,100402.94
2023-01-11T10:55:02.898Z,100403.78
2023-01-11T10:57:18.052Z,100401.88
2023-01-11T10:59:41.222Z,100407.09
2023-01-11T11:01:54.498Z,100415.69
2023-01-11T11:04:10.685Z,100414.75
2023-01-11T11:06:25.510Z,100409.50
2023-01-11T11:08:32.210Z,100418.19
2023-01-11T11:10:46.378Z,100410.34
2023-01-11T11:12:59.615Z,100411.19
2023-01-11T11:15:11.271Z,100405.13
2023-01-11T11:17:18.298Z,100409.50
2023-01-11T11:19:26.315Z,100403.34
2023-01-11T11:21:36.755Z,100401.66
2023-01-11T11:23:40.744Z,100402.72
2023-01-11T11:25:49.652Z,100407.94
2023-01-11T11:27:56.733Z,100394.97
2023-01-11T11:30:00.006Z,100394.97
2023-01-11T11:32:03.518Z,100401.03
2023-01-11T11:34:08.863Z,100405.31
2023-01-11T11:36:14.182Z,100421.84
2023-01-11T11:38:24.334Z,100420.91
2023-01-11T11:40:33.145Z,100405.22
2023-01-11T11:42:36.232Z,100406.06
2023-01-11T11:44:39.741Z,100411.94
2023-01-11T11:46:56.788Z,100409.31
2023-01-11T11:49:13.233Z,100417.91
2023-01-11T11:51:22.054Z,100406.50
2023-01-11T11:53:33.535Z,100409.94
2023-01-11T11:55:37.055Z,100402.09
2023-01-11T11:57:42.989Z,100411.72
2023-01-11T11:59:49.254Z,100415.28
2023-01-11T12:02:00.108Z,100413.41
2023-01-11T12:04:05.878Z,100424.81
2023-01-11T12:06:09.124Z,100417.91
2023-01-11T12:08:16.064Z,100410.88
2023-01-11T12:10:23.713Z,100425.75
2023-01-11T12:12:29.544Z,100429.19
2023-01-11T12:14:35.184Z,100423.22
2023-01-11T12:16:41.331Z,100422.41
2023-01-11T12:18:44.692Z,100425.09
2023-01-11T12:20:48.869Z,100424.28
2023-01-11T12:23:18.114Z,100428.66
2023-01-11T12:25:25.228Z,100429.72
2023-01-11T12:27:39.718Z,100431.59
2023-01-11T12:29:54.050Z,100429.94
2023-01-11T12:32:11.079Z,100431.81
2023-01-11T12:34:31.943Z,100425.84
2023-01-11T12:36:44.689Z,100426.78
2023-01-11T12:39:02.890Z,100429.41
2023-01-11T12:41:41.978Z,100435.56
2023-01-11T12:44:05.257Z,100433.91
2023-01-11T12:46:21.338Z,100433.06
2023-01-11T12:48:39.628Z,100427.00
2023-01-11T12:50:59.277Z,100426.16
2023-01-11T12:53:17.212Z,100425.31
2023-01-11T12:55:34.180Z,100428.88
2023-01-11T12:57:51.192Z,100422.81
2023-01-11T13:00:21.594Z,100418.50
2023-01-11T13:02:43.484Z,100425.50
2023-01-11T13:04:53.691Z,100432.41
2023-01-11T13:07:04.699Z,100433.16
2023-01-11T13:09:17.697Z,100431.38
2023-01-11T13:11:36.550Z,100439.97
2023-01-11T13:13:53.085Z,100452.94
2023-01-11T13:16:02.635Z,100449.38
2023-01-11T13:18:18.847Z,100450.13
2023-01-11T13:20:34.103Z,100457.63
2023-01-11T13:22:41.521Z,100464.25
2023-01-11T13:24:48.912Z,100445.03
2023-01-11T13:26:54.046Z,100454.56
2023-01-11T13:29:03.387Z,100461.72
2023-01-11T13:31:10.587Z,100458.97
2023-01-11T13:33:19.640Z,100462.91
2023-01-11T13:35:33.097Z,100456.03
2023-01-11T13:37:44.145Z,100452.59
2023-01-11T13:39:54.326Z,100454.81
2023-01-11T13:42:03.293Z,100455.50
2023-01-11T13:44:14.269Z,100455.41
2023-01-11T13:46:23.471Z,100468.22
2023-01-11T13:48:29.736Z,100472.44
2023-01-11T13:50:38.598Z,100475.59
2023-01-11T13:52:51.249Z,100476.41
2023-01-11T13:54:59.664Z,100486.88
2023-01-11T13:57:07.830Z,100486.81
2023-01-11T13:59:17.763Z,100480.59
2023-01-11T14:01:25.205Z,100493.59
2023-01-11T14:03:32.248Z,100498.59
2023-01-11T14:05:44.971Z,100499.19
2023-01-11T14:08:12.770Z,100494.59
2023-01-11T14:10:32.214Z,100495.19
2023-01-11T14:12:51.580Z,100505.19
2023-01-11T14:15:08.485Z,100509.03
2023-01-11T14:17:32.896Z,100508.53
2023-01-11T14:19:44.528Z,100503.69
2023-01-11T14:21:58.557Z,100513.50
2023-01-11T14:24:03.592Z,100520.78
2023-01-11T14:26:50.819Z,100527.03
2023-01-11T14:29:10.095Z,100531.72
2023-01-11T14:31:40.221Z,100521.50
2023-01-11T14:34:04.745Z,100519.06
2023-01-11T14:36:35.260Z,100528.03
2023-01-11T14:39:01.688Z,100529.91
2023-01-11T14:41:26.311Z,100533.63
2023-01-11T14:43:48.414Z,100540.72
2023-01-11T14:46:11.082Z,100547.81
2023-01-11T14:48:25.616Z,100543.53
2023-01-11T14:50:42.713Z,100552.19
2023-01-11T14:52:47.248Z,100552.13
2023-01-11T14:54:54.028Z,100562.56
2023-01-11T14:56:58.244Z,100572.25
2023-01-11T14:59:06.234Z,100569.09
2023-01-11T15:01:11.917Z,100564.19
2023-01-11T15:03:39.623Z,100561.09
2023-01-11T15:05:47.756Z,100558.75
2023-01-11T15:07:51.808Z,100567.72
2023-01-11T15:09:55.191Z,100565.38
2023-01-11T15:12:12.720Z,100563.03
2023-01-11T15:14:28.190Z,100574.69
2023-01-11T15:16:50.843Z,100571.50
2023-01-11T15:18:56.026Z,100578.75
2023-01-11T15:21:05.246Z,100577.25
2023-01-11T15:23:08.307Z,100577.44
2023-01-11T15:25:22.682Z,100570.66
2023-01-11T15:27:27.558Z,100569.06
2023-01-11T15:29:32.879Z,100571.84
2023-01-11T15:31:39.991Z,100567.75
2023-01-11T15:33:47.977Z,100569.78
2023-01-11T15:36:04.146Z,100565.75
2023-01-11T15:38:16.577Z,100565.91
2023-01-11T15:40:21.731Z,100565.28
2023-01-11T15:42:49.618Z,100559.50
2023-01-11T15:45:17.336Z,100556.22
2023-01-11T15:47:36.892Z,100560.78
2023-01-11T15:50:07.091Z,100557.59
2023-01-11T15:52:37.383Z,100553.56
2023-01-11T15:55:09.374Z,100556.44
2023-01-11T15:57:50.387Z,100550.75
2023-01-11T16:00:29.968Z,100555.38
2023-01-11T16:03:09.850Z,100555.63
2023-01-11T16:05:19.500Z,100560.16
2023-01-11T16:07:34.774Z,100562.88
2023-01-11T16:10:14.793Z,100559.53
2023-01-11T16:12:46.588Z,100564.91
2023-01-11T16:15:05.558Z,100561.56
2023-01-11T16:17:13.922Z,100560.78
2023-01-11T16:19:20.443Z,100566.94
2023-01-11T16:21:32.635Z,100566.94
2023-01-11T16:23:37.163Z,100574.84
2023-01-11T16:25:42.873Z,100580.97
2023-01-11T16:27:53.602Z,100581.06
2023-01-11T16:29:57.229Z,100568.94
2023-01-11T16:32:02.444Z,100576.00
2023-01-11T16:34:08.121Z,100577.84
2023-01-11T16:36:14.316Z,100578.78
2023-01-11T16:38:20.360Z,100577.09
2023-01-11T16:40:29.897Z,100584.91
2023-01-11T16:42:36.909Z,100571.97
2023-01-11T16:44:46.049Z,100578.09
2023-01-11T16:47:17.057Z,100576.53
2023-01-11T16:49:20.928Z,100578.38
2023-01-11T16:51:24.011Z,100583.75
2023-01-11T16:53:29.328Z,100584.84
2023-01-11T16:55:37.821Z,100593.66
2023-01-11T16:57:45.198Z,100591.31
2023-01-11T17:00:01.735Z,100600.22
2023-01-11T17:02:27.620Z,100591.72
2023-01-11T17:04:32.869Z,100590.16
2023-01-11T17:06:36.228Z,100596.34
2023-01-11T17:08:40.918Z,100602.56
2023-01-11T17:10:45.439Z,100598.44
2023-01-11T17:13:06.336Z,100593.38
2023-01-11T17:15:23.120Z,100603.97
2023-01-11T17:17:27.316Z,100603.19
2023-01-11T17:19:32.821Z,100606.72
2023-01-11T17:21:36.415Z,100612.78
2023-01-11T17:23:47.089Z,100609.41
2023-01-11T17:25:56.678Z,100614.69
2023-01-11T17:28:03.793Z,100613.00
2023-01-11T17:30:16.752Z,100617.38
2023-01-11T17:32:25.377Z,100614.69
2023-01-11T17:34:32.254Z,100618.16
2023-01-11T17:36:37.109Z,100622.34
2023-01-11T17:38:43.317Z,100608.41
2023-01-11T17:40:46.898Z,100603.19
2023-01-11T17:43:10.075Z,100611.94
2023-01-11T17:45:21.227Z,100607.66
2023-01-11T17:47:25.018Z,100608.56
2023-01-11T17:49:28.275Z,100610.34
2023-01-11T17:51:34.627Z,100601.69
2023-01-11T17:53:40.029Z,100610.41
2023-01-11T17:55:51.216Z,100612.09
2023-01-11T17:58:19.719Z,100612.09
2023-01-11T18:00:27.076Z,100613.78
2023-01-11T18:02:30.753Z,100620.81
2023-01-11T18:04:33.938Z,100620.06
2023-01-11T18:06:40.809Z,100628.91
2023-01-11T18:08:49.068Z,100623.78
2023-01-11T18:10:56.085Z,100623.00
2023-01-11T18:13:01.041Z,100621.31
2023-01-11T18:15:07.770Z,100621.47
2023-01-11T18:17:31.374Z,100617.19
2023-01-11T18:19:36.583Z,100619.94
2023-01-11T18:21:42.710Z,100631.38
2023-01-11T18:23:45.817Z,100634.03
2023-01-11T18:25:48.942Z,100638.47
2023-01-11T18:27:52.946Z,100642.91
2023-01-11T18:29:57.779Z,100636.03
2023-01-11T18:32:02.275Z,100625.63
2023-01-11T18:34:05.895Z,100630.69
2023-01-11T18:36:20.533Z,100631.44
2023-01-11T18:38:25.720Z,100620.94
2023-01-11T18:40:30.926Z,100623.41
2023-01-11T18:42:34.089Z,100614.59
2023-01-11T18:44:38.028Z,100610.91
2023-01-11T18:46:41.243Z,100612.44
2023-01-11T18:48:45.712Z,100618.31
2023-01-11T18:50:51.984Z,100629.56
2023-01-11T18:52:55.091Z,100627.78
2023-01-11T18:54:58.765Z,100618.41
2023-01-11T18:57:01.886Z,100620.25
2023-01-11T18:59:05.011Z,100614.28
2023-01-11T19:01:09.036Z,100616.13
2023-01-11T19:05:19.685Z,100622.41
2023-01-11T19:07:24.047Z,100621.56
2023-01-11T19:09:27.148Z,100615.44
2023-01-11T19:11:30.990Z,100622.31
2023-01-11T19:13:34.054Z,100624.69
2023-01-11T19:15:37.442Z,100621.00
2023-01-11T19:17:40.583Z,100619.00
2023-01-11T19:19:43.695Z,100615.31
2023-01-11T19:21:48.143Z,100613.47
2023-01-11T19:23:51.311Z,100609.94
2023-01-11T19:25:57.501Z,100597.84
2023-01-11T19:28:00.688Z,100610.09
2023-01-11T19:30:03.953Z,100615.47
2023-01-11T19:32:07.180Z,100606.88
2023-01-11T19:34:10.306Z,100601.84
2023-01-11T19:36:13.401Z,100591.63
2023-01-11T19:38:18.469Z,100590.00
2023-01-11T19:40:21.629Z,100592.78
2023-01-11T19:42:24.789Z,100583.34
2023-01-11T19:44:31.237Z,100574.78
2023-01-11T19:46:34.461Z,100574.94
2023-01-11T19:48:37.742Z,100588.88
2023-01-11T19:50:41.245Z,100587.19
2023-01-11T19:52:45.102Z,100574.31
2023-01-11T19:54:49.675Z,100575.25
2023-01-11T19:56:53.526Z,100570.03
2023-01-11T19:58:56.788Z,100568.38
2023-01-11T20:01:00.429Z,100575.41
2023-01-11T20:03:06.277Z,100573.72
2023-01-11T20:05:10.040Z,100573.72
2023-01-11T20:07:14.627Z,100568.53
2023-01-11T20:09:18.684Z,100577.28
2023-01-11T20:11:23.566Z,100570.38
2023-01-11T20:13:26.709Z,100565.25
2023-01-11T20:15:30.089Z,100554.94
2023-01-11T20:17:33.654Z,100561.97
2023-01-11T20:19:37.091Z,100557.69
2023-01-11T20:21:40.284Z,100562.06
2023-01-11T20:23:43.572Z,100569.00
2023-01-11T20:25:47.022Z,100562.13
2023-01-11T20:27:51.616Z,100566.50
2023-01-11T20:29:54.823Z,100556.94
2023-01-11T20:32:13.398Z,100555.25
2023-01-11T20:34:21.508Z,100546.66
2023-01-11T20:36:26.233Z,100542.38
2023-01-11T20:38:29.531Z,100540.78
2023-01-11T20:40:33.017Z,100534.72
2023-01-11T20:42:36.169Z,100541.78
2023-01-11T20:44:41.348Z,100538.34
2023-01-11T20:46:47.676Z,100538.41
2023-01-11T20:48:51.260Z,100526.31
2023-01-11T20:50:54.497Z,100528.00
2023-01-11T20:52:59.537Z,100517.75
2023-01-11T20:55:02.715Z,100513.47
2023-01-11T20:57:12.153Z,100505.84
2023-01-11T20:59:18.553Z,100508.53
2023-01-11T21:01:25.136Z,100510.22
2023-01-11T21:03:28.311Z,100505.84
2023-01-11T21:05:31.462Z,100495.25
2023-01-11T21:07:34.756Z,100502.16
2023-01-11T21:09:37.997Z,100497.72
2023-01-11T21:11:41.989Z,100485.47
2023-01-11T21:13:45.210Z,100494.94
2023-01-11T21:15:49.273Z,100488.81
2023-01-11T21:17:53.758Z,100491.34
2023-01-11T21:19:57.354Z,100488.66
2023-01-11T21:22:00.441Z,100482.53
2023-01-11T21:24:05.159Z,100472.91
2023-01-11T21:26:12.736Z,100458.03
2023-01-11T21:28:15.803Z,100459.72
2023-01-11T21:30:19.394Z,100466.59
2023-01-11T21:32:22.742Z,100457.88
2023-01-11T21:34:27.463Z,100459.56
2023-01-11T21:36:32.125Z,100456.88
2023-01-11T21:38:35.711Z,100451.59
2023-01-11T21:40:38.763Z,100456.72
2023-01-11T21:42:42.082Z,100450.47
2023-01-11T21:44:45.392Z,100443.44
2023-01-11T21:46:49.720Z,100445.13
2023-01-11T21:48:52.786Z,100443.34
2023-01-11T21:50:57.228Z,100429.34
2023-01-11T21:53:00.257Z,100425.81
2023-01-11T21:55:03.443Z,100425.66
2023-01-11T21:57:06.502Z,100423.81
2023-01-11T21:59:09.674Z,100422.03
2023-01-11T22:01:14.204Z,100417.50
2023-01-11T22:03:17.282Z,100410.53
2023-01-11T22:05:20.358Z,100410.38
2023-01-11T22:07:25.961Z,100418.00
2023-01-11T22:09:29.130Z,100405.63
2023-01-11T22:11:33.192Z,100410.69
2023-01-11T22:13:36.935Z,100397.50
2023-01-11T22:15:39.993Z,100403.47
2023-01-11T22:17:43.185Z,100396.41
2023-01-11T22:19:46.265Z,100392.69
2023-01-11T22:21:49.430Z,100390.84
2023-01-11T22:23:56.610Z,100381.94
2023-01-11T22:26:04.240Z,100385.31
2023-01-11T22:28:07.329Z,100387.81
2023-01-11T22:30:11.646Z,100392.00
2023-01-11T22:32:15.059Z,100396.28
2023-01-11T22:34:19.467Z,100394.41
2023-01-11T22:36:24.192Z,100395.19
2023-01-11T22:38:27.245Z,100393.31
2023-01-11T22:40:31.705Z,100385.50
2023-01-11T22:42:34.825Z,100386.25
2023-01-11T22:44:37.934Z,100385.41
2023-01-11T22:46:41.138Z,100375.00
2023-01-11T22:48:44.401Z,100375.84
2023-01-11T22:50:47.526Z,100371.38
2023-01-11T22:52:50.572Z,100364.41
2023-01-11T22:54:53.681Z,100359.09
2023-01-11T22:56:58.544Z,100370.28
2023-01-11T22:59:01.885Z,100364.22
2023-01-11T23:01:12.219Z,100345.91
2023-01-11T23:03:16.496Z,100358.94
2023-01-11T23:05:19.747Z,100350.19
2023-01-11T23:07:22.852Z,100350.19
2023-01-11T23:09:25.969Z,100340.53
2023-01-11T23:11:47.909Z,100345.72
2023-01-11T23:13:58.928Z,100345.72
2023-01-11T23:16:02.062Z,100338.84
2023-01-11T23:18:05.958Z,100344.97
2023-01-11T23:20:10.723Z,100337.16
2023-01-11T23:22:16.780Z,100342.38
2023-01-11T23:24:20.079Z,100331.13
2023-01-11T23:26:23.297Z,100337.25
2023-01-11T23:28:29.787Z,100324.22
2023-01-11T23:30:34.234Z,100334.66
2023-01-11T23:32:37.339Z,100323.38
2023-01-11T23:34:40.393Z,100323.38
2023-01-11T23:36:44.393Z,100331.28
2023-01-11T23:38:47.603Z,100325.25
2023-01-11T23:41:08.511Z,100330.44
2023-01-11T23:43:11.600Z,100321.78
2023-01-11T23:45:14.763Z,100324.31
2023-01-11T23:47:21.295Z,100329.53
2023-01-11T23:49:24.834Z,100322.53
2023-01-11T23:51:27.895Z,100332.88
2023-01-11T23:53:30.958Z,100315.47
2023-01-11T23:55:34.094Z,100310.28
2023-01-11T23:57:37.187Z,100308.41
2023-01-11T23:59:40.578Z,100302.38
